Gesamt
Liverpool Medical Airport YXLL Wetter
There is no TAF data available at YXLL. Showing TAF data for YSBK (3 mi O).
BWU Terminal Area Forecast (keine Daten für YXLL)
| Here is the undecoded forecast: 2026/09/01 17:00 YSBK 011700Z 0118/0212 33006KT CAVOK FM020000 27014KT CAVOK FM020900 27008KT CAVOK RMK FM011800 MOD TURB BLW 5000FT TL020000 FM020900 MOD TURB BLW 5000FT T 13 14 23 27 Q 1015 1016 1016 1013 |
There is no METAR data available at YXLL. Showing METAR data for YSBK (3 mi O).
Aktueller METAR-Verlauf BWU (keine Daten für YXLL)
| Date | Time (AEST) | Flight Rules | Wind Dir. | Speed | Type | Height AGL (ft) | Visibility | Temp (°C) | Temp (°F) | Dew Point (°C) | Dew Point (°F) | Rel. Humid. | Pressure | Density Altitude | Remarks |
|---|---|---|---|---|---|---|---|---|---|---|---|---|---|---|---|
| 02-Sep | 07:00 | VFR | Calm | Scattered |
11.000 |
10000 meters | 15° | 59° | 10° | 50° | 72% | 1017 mb | -83 ft | ||
| 02-Sep | 06:00 | VFR | 250° | 6 kt | Few |
9.100 |
10000 meters | 15° | 59° | 9° | 48° | 67% | 1017 mb | -83 ft | |
| 02-Sep | 05:00 | VFR | 360° | 5 kt | Few |
9.900 |
10000 meters | 17° | 62° | 9° | 48° | 59% | 1016 mb | 187 ft | |
| 02-Sep | 04:00 | VFR | 310° | 3 kt | 10000 meters | 14° | 57° | 9° | 48° | 72% | 1015 mb | -144 ft | |||
| 02-Sep | 03:00 | VFR | 250° | 3 kt | 10000 meters | 13° | 55° | 8° | 46° | 72% | 1016 mb | -293 ft | |||
| 02-Sep | 02:00 | VFR | 340° | 4 kt | 10000 meters | 17° | 62° | 8° | 46° | 55% | 1016 mb | 187 ft | |||
| 02-Sep | 01:00 | VFR | 340° | 7 kt | 10000 meters | 18° | 64° | 8° | 46° | 52% | 1017 mb | 277 ft | |||
| 02-Sep | 00:00 | VFR | 340° | 7 kt | 10000 meters | 18° | 64° | 7° | 44° | 49% | 1017 mb | 277 ft | |||
| 01-Sep | 23:00 | VFR | 340° | 6 kt | 10000 meters | 18° | 64° | 7° | 44° | 49% | 1018 mb | 247 ft | |||
| 01-Sep | 22:00 | VFR | 350° | 6 kt | 10000 meters | 19° | 66° | 7° | 44° | 46% | 1018 mb | 367 ft | |||
| 01-Sep | 21:00 | VFR | 340° | 4 kt | 10000 meters | 19° | 66° | 7° | 44° | 46% | 1019 mb | 338 ft | |||
| 01-Sep | 20:00 | VFR | 320° | 4 kt | 10000 meters | 21° | 69° | 7° | 44° | 40% | 1019 mb | 578 ft | |||
| 01-Sep | 19:00 | VFR | 330° | 5 kt | 10000 meters | 21° | 69° | 6° | 42° | 38% | 1019 mb | 578 ft | |||
| 01-Sep | 18:00 | VFR | 310° | 6 kt | 10000 meters | 23° | 73° | 5° | 41° | 31% | 1019 mb | 818 ft | |||
| 01-Sep | 17:00 | VFR | 310° | 9 kt | 10000 meters | 24° | 75° | 5° | 41° | 29% | 1018 mb | 967 ft | |||
| 01-Sep | 16:00 | VFR | 300° | 8 kt | 10000 meters | 26° | 78° | 6° | 42° | 28% | 1018 mb | 1.207 ft | |||
| 01-Sep | 15:00 | VFR | 320° | 10 kt | 10000 meters | 26° | 78° | 3° | 37° | 23% | 1018 mb | 1.207 ft | Wind gusting to 20 KT | ||
| 01-Sep | 14:00 | VFR | 310° | 7 kt | 10000 meters | 26° | 78° | 5° | 41° | 26% | 1019 mb | 1.178 ft | |||
| 01-Sep | 13:00 | VFR | 310° | 6 kt | 10000 meters | 25° | 77° | 5° | 41° | 28% | 1020 mb | 1.028 ft | |||
| 01-Sep | 12:00 | VFR | 10° | 5 kt | 10000 meters | 24° | 75° | 8° | 46° | 36% | 1022 mb | 849 ft | |||
| 01-Sep | 11:00 | VFR | 160° | 3 kt | 10000 meters | 20° | 68° | 11° | 51° | 56% | 1024 mb | 310 ft | |||
| 01-Sep | 10:00 | VFR | 290° | 4 kt | 10000 meters | 18° | 64° | 10° | 50° | 59% | 1025 mb | 41 ft | |||
| 01-Sep | 09:00 | VFR | 330° | 2 kt | 10000 meters | 15° | 59° | 10° | 50° | 72% | 1026 mb | -349 ft | |||
| 01-Sep | 08:00 | VFR | Calm | 10000 meters | 12° | 53° | 11° | 51° | 94% | 1027 mb | -738 ft |
Anmelden
| Ihr Browser wird nicht unterstützt. aktualisieren Sie Ihren Browser |
